sensor_id;sensor_type;location;lat;lon;timestamp;pressure;altitude;pressure_sealevel;temperature;humidity
43770;BME280;6597;52.218;9.882;2023-02-10T00:00:30;102581.91;;;2.49;84.33
43770;BME280;6597;52.218;9.882;2023-02-10T00:02:56;102574.25;;;2.54;84.56
43770;BME280;6597;52.218;9.882;2023-02-10T00:05:23;102577.75;;;2.56;84.75
43770;BME280;6597;52.218;9.882;2023-02-10T00:07:49;102585.69;;;2.61;84.85
43770;BME280;6597;52.218;9.882;2023-02-10T00:10:17;102588.34;;;2.64;85.28
43770;BME280;6597;52.218;9.882;2023-02-10T00:12:44;102581.38;;;2.61;85.99
43770;BME280;6597;52.218;9.882;2023-02-10T00:15:10;102588.34;;;2.64;86.06
43770;BME280;6597;52.218;9.882;2023-02-10T00:17:37;102590.97;;;2.65;86.33
43770;BME280;6597;52.218;9.882;2023-02-10T00:20:04;102585.00;;;2.68;86.56
43770;BME280;6597;52.218;9.882;2023-02-10T00:22:33;102588.47;;;2.68;86.54
43770;BME280;6597;52.218;9.882;2023-02-10T00:24:59;102583.22;;;2.65;86.63
43770;BME280;6597;52.218;9.882;2023-02-10T00:27:27;102585.88;;;2.68;86.68
43770;BME280;6597;52.218;9.882;2023-02-10T00:29:54;102577.16;;;2.65;86.78
43770;BME280;6597;52.218;9.882;2023-02-10T00:32:21;102579.50;;;2.57;87.17
43770;BME280;6597;52.218;9.882;2023-02-10T00:34:47;102591.59;;;2.57;87.38
43770;BME280;6597;52.218;9.882;2023-02-10T00:37:14;102590.75;;;2.58;87.39
43770;BME280;6597;52.218;9.882;2023-02-10T00:39:40;102607.09;;;2.55;87.70
43770;BME280;6597;52.218;9.882;2023-02-10T00:42:07;102599.31;;;2.55;87.70
43770;BME280;6597;52.218;9.882;2023-02-10T00:44:35;102602.81;;;2.56;87.56
43770;BME280;6597;52.218;9.882;2023-02-10T00:47:02;102599.31;;;2.55;87.68
43770;BME280;6597;52.218;9.882;2023-02-10T00:49:28;102598.53;;;2.58;87.31
43770;BME280;6597;52.218;9.882;2023-02-10T00:51:55;102598.50;;;2.56;87.63
43770;BME280;6597;52.218;9.882;2023-02-10T00:54:24;102600.88;;;2.48;88.03
43770;BME280;6597;52.218;9.882;2023-02-10T00:56:50;102600.91;;;2.50;87.97
43770;BME280;6597;52.218;9.882;2023-02-10T00:59:17;102612.97;;;2.48;88.00
43770;BME280;6597;52.218;9.882;2023-02-10T01:01:46;102606.88;;;2.46;87.91
43770;BME280;6597;52.218;9.882;2023-02-10T01:04:14;102607.78;;;2.48;88.41
43770;BME280;6597;52.218;9.882;2023-02-10T01:06:41;102615.47;;;2.45;88.67
43770;BME280;6597;52.218;9.882;2023-02-10T01:09:08;102616.34;;;2.45;89.01
43770;BME280;6597;52.218;9.882;2023-02-10T01:11:35;102615.50;;;2.46;88.83
43770;BME280;6597;52.218;9.882;2023-02-10T01:14:03;102625.81;;;2.43;89.58
43770;BME280;6597;52.218;9.882;2023-02-10T01:16:31;102617.06;;;2.40;89.74
43770;BME280;6597;52.218;9.882;2023-02-10T01:18:59;102611.72;;;2.34;90.61
43770;BME280;6597;52.218;9.882;2023-02-10T01:21:26;102616.84;;;2.32;91.41
43770;BME280;6597;52.218;9.882;2023-02-10T01:23:58;102609.97;;;2.33;91.70
43770;BME280;6597;52.218;9.882;2023-02-10T01:26:38;102622.13;;;2.35;91.62
43770;BME280;6597;52.218;9.882;2023-02-10T01:29:06;102622.16;;;2.37;91.79
43770;BME280;6597;52.218;9.882;2023-02-10T01:31:37;102622.16;;;2.37;92.21
43770;BME280;6597;52.218;9.882;2023-02-10T01:34:05;102624.75;;;2.37;92.55
43770;BME280;6597;52.218;9.882;2023-02-10T01:36:36;102637.81;;;2.40;92.32
43770;BME280;6597;52.218;9.882;2023-02-10T01:39:03;102636.13;;;2.42;92.34
43770;BME280;6597;52.218;9.882;2023-02-10T01:41:30;102631.69;;;2.38;92.47
43770;BME280;6597;52.218;9.882;2023-02-10T01:44:01;102628.25;;;2.39;92.43
43770;BME280;6597;52.218;9.882;2023-02-10T01:46:28;102623.91;;;2.38;92.12
43770;BME280;6597;52.218;9.882;2023-02-10T01:48:57;102621.41;;;2.41;91.98
43770;BME280;6597;52.218;9.882;2023-02-10T01:51:32;102619.66;;;2.40;92.19
43770;BME280;6597;52.218;9.882;2023-02-10T01:54:00;102619.69;;;2.41;92.56
43770;BME280;6597;52.218;9.882;2023-02-10T01:56:27;102622.13;;;2.35;93.14
43770;BME280;6597;52.218;9.882;2023-02-10T01:58:53;102622.16;;;2.37;93.60
43770;BME280;6597;52.218;9.882;2023-02-10T02:01:20;102617.91;;;2.39;93.69
43770;BME280;6597;52.218;9.882;2023-02-10T02:03:46;102618.81;;;2.41;93.71
43770;BME280;6597;52.218;9.882;2023-02-10T02:06:13;102614.56;;;2.43;94.06
43770;BME280;6597;52.218;9.882;2023-02-10T02:08:41;102616.31;;;2.44;94.60
43770;BME280;6597;52.218;9.882;2023-02-10T02:11:15;102612.09;;;2.47;94.62
43770;BME280;6597;52.218;9.882;2023-02-10T02:13:56;102612.16;;;2.50;94.39
43770;BME280;6597;52.218;9.882;2023-02-10T02:16:39;102613.16;;;2.56;94.03
43770;BME280;6597;52.218;9.882;2023-02-10T02:19:21;102619.22;;;2.56;93.78
43770;BME280;6597;52.218;9.882;2023-02-10T02:22:25;102618.28;;;2.53;94.41
43770;BME280;6597;52.218;9.882;2023-02-10T02:25:15;102617.22;;;2.46;94.59
43770;BME280;6597;52.218;9.882;2023-02-10T02:27:57;102622.47;;;2.47;94.84
43770;BME280;6597;52.218;9.882;2023-02-10T02:30:44;102636.22;;;2.45;95.15
43770;BME280;6597;52.218;9.882;2023-02-10T02:33:17;102634.38;;;2.41;95.44
43770;BME280;6597;52.218;9.882;2023-02-10T02:35:49;102630.91;;;2.40;95.54
43770;BME280;6597;52.218;9.882;2023-02-10T02:38:18;102630.94;;;2.42;95.56
43770;BME280;6597;52.218;9.882;2023-02-10T02:40:45;102627.38;;;2.38;95.58
43770;BME280;6597;52.218;9.882;2023-02-10T02:43:12;102622.84;;;2.30;96.16
43770;BME280;6597;52.218;9.882;2023-02-10T02:45:46;102626.25;;;2.29;96.39
43770;BME280;6597;52.218;9.882;2023-02-10T02:48:28;102629.53;;;2.23;96.77
43770;BME280;6597;52.218;9.882;2023-02-10T02:51:04;102626.81;;;2.18;97.18
43770;BME280;6597;52.218;9.882;2023-02-10T02:53:37;102631.84;;;2.14;97.41
43770;BME280;6597;52.218;9.882;2023-02-10T02:56:13;102627.47;;;2.11;97.90
43770;BME280;6597;52.218;9.882;2023-02-10T02:58:50;102624.84;;;2.10;97.61
43770;BME280;6597;52.218;9.882;2023-02-10T03:01:23;102626.53;;;2.09;97.73
43770;BME280;6597;52.218;9.882;2023-02-10T03:03:54;102631.63;;;2.06;97.93
43770;BME280;6597;52.218;9.882;2023-02-10T03:06:23;102626.38;;;2.03;98.49
43770;BME280;6597;52.218;9.882;2023-02-10T03:08:49;102627.13;;;1.99;98.59
43770;BME280;6597;52.218;9.882;2023-02-10T03:11:16;102628.78;;;1.97;98.79
43770;BME280;6597;52.218;9.882;2023-02-10T03:13:43;102607.81;;;1.90;98.93
43770;BME280;6597;52.218;9.882;2023-02-10T03:16:09;102627.84;;;1.95;98.83
43770;BME280;6597;52.218;9.882;2023-02-10T03:18:36;102632.03;;;1.92;99.07
43770;BME280;6597;52.218;9.882;2023-02-10T03:21:04;102625.09;;;1.91;99.22
43770;BME280;6597;52.218;9.882;2023-02-10T03:23:31;102627.66;;;1.89;99.60
43770;BME280;6597;52.218;9.882;2023-02-10T03:25:58;102620.72;;;1.88;99.85
43770;BME280;6597;52.218;9.882;2023-02-10T03:28:26;102621.59;;;1.88;99.95
43770;BME280;6597;52.218;9.882;2023-02-10T03:30:53;102625.97;;;1.91;100.00
43770;BME280;6597;52.218;9.882;2023-02-10T03:33:20;102616.44;;;1.90;100.00
43770;BME280;6597;52.218;9.882;2023-02-10T03:35:47;102619.88;;;1.89;100.00
43770;BME280;6597;52.218;9.882;2023-02-10T03:38:15;102626.81;;;1.90;100.00
43770;BME280;6597;52.218;9.882;2023-02-10T03:40:42;102622.69;;;1.95;100.00
43770;BME280;6597;52.218;9.882;2023-02-10T03:43:08;102630.50;;;1.97;100.00
43770;BME280;6597;52.218;9.882;2023-02-10T03:45:37;102620.88;;;1.94;100.00
43770;BME280;6597;52.218;9.882;2023-02-10T03:48:04;102635.50;;;1.92;100.00
43770;BME280;6597;52.218;9.882;2023-02-10T03:50:30;102631.94;;;1.88;99.59
43770;BME280;6597;52.218;9.882;2023-02-10T03:52:57;102634.34;;;1.82;99.85
43770;BME280;6597;52.218;9.882;2023-02-10T03:55:25;102631.69;;;1.79;99.96
43770;BME280;6597;52.218;9.882;2023-02-10T03:57:52;102633.28;;;1.76;100.00
43770;BME280;6597;52.218;9.882;2023-02-10T04:00:18;102640.22;;;1.77;100.00
43770;BME280;6597;52.218;9.882;2023-02-10T04:02:45;102648.00;;;1.77;100.00
43770;BME280;6597;52.218;9.882;2023-02-10T04:05:12;102637.53;;;1.74;100.00
43770;BME280;6597;52.218;9.882;2023-02-10T04:07:38;102641.84;;;1.73;100.00
43770;BME280;6597;52.218;9.882;2023-02-10T04:10:06;102640.13;;;1.74;100.00
43770;BME280;6597;52.218;9.882;2023-02-10T04:12:34;102640.13;;;1.74;100.00
43770;BME280;6597;52.218;9.882;2023-02-10T04:15:00;102632.41;;;1.75;100.00
43770;BME280;6597;52.218;9.882;2023-02-10T04:17:27;102642.13;;;1.82;100.00
43770;BME280;6597;52.218;9.882;2023-02-10T04:19:53;102640.41;;;1.83;100.00
43770;BME280;6597;52.218;9.882;2023-02-10T04:22:20;102636.84;;;1.79;100.00
43770;BME280;6597;52.218;9.882;2023-02-10T04:24:47;102636.06;;;1.82;100.00
43770;BME280;6597;52.218;9.882;2023-02-10T04:27:13;102642.13;;;1.82;100.00
43770;BME280;6597;52.218;9.882;2023-02-10T04:29:41;102646.44;;;1.82;100.00
43770;BME280;6597;52.218;9.882;2023-02-10T04:32:08;102642.22;;;1.85;100.00
43770;BME280;6597;52.218;9.882;2023-02-10T04:34:35;102643.13;;;1.87;100.00
43770;BME280;6597;52.218;9.882;2023-02-10T04:37:01;102632.81;;;1.89;100.00
43770;BME280;6597;52.218;9.882;2023-02-10T04:39:28;102639.75;;;1.90;100.00
43770;BME280;6597;52.218;9.882;2023-02-10T04:41:54;102637.16;;;1.90;100.00
43770;BME280;6597;52.218;9.882;2023-02-10T04:44:21;102632.91;;;1.92;100.00
43770;BME280;6597;52.218;9.882;2023-02-10T04:46:49;102626.06;;;1.94;100.00
43770;BME280;6597;52.218;9.882;2023-02-10T04:49:16;102632.09;;;1.93;100.00
43770;BME280;6597;52.218;9.882;2023-02-10T04:51:43;102633.03;;;1.95;100.00
43770;BME280;6597;52.218;9.882;2023-02-10T04:54:10;102633.13;;;1.98;100.00
43770;BME280;6597;52.218;9.882;2023-02-10T04:56:36;102628.00;;;2.00;100.00
43770;BME280;6597;52.218;9.882;2023-02-10T04:59:03;102627.25;;;2.04;100.00
43770;BME280;6597;52.218;9.882;2023-02-10T05:01:29;102634.97;;;2.02;100.00
43770;BME280;6597;52.218;9.882;2023-02-10T05:03:57;102619.38;;;2.01;100.00
43770;BME280;6597;52.218;9.882;2023-02-10T05:06:24;102620.25;;;2.01;100.00
43770;BME280;6597;52.218;9.882;2023-02-10T05:08:50;102616.84;;;2.02;100.00
43770;BME280;6597;52.218;9.882;2023-02-10T05:11:18;102623.03;;;2.07;100.00
43770;BME280;6597;52.218;9.882;2023-02-10T05:13:45;102629.03;;;2.06;100.00
43770;BME280;6597;52.218;9.882;2023-02-10T05:16:12;102630.63;;;2.01;100.00
43770;BME280;6597;52.218;9.882;2023-02-10T05:18:39;102632.38;;;2.02;100.00
43770;BME280;6597;52.218;9.882;2023-02-10T05:21:08;102634.88;;;1.99;100.00
43770;BME280;6597;52.218;9.882;2023-02-10T05:23:35;102638.34;;;2.00;100.00
43770;BME280;6597;52.218;9.882;2023-02-10T05:26:02;102631.47;;;2.00;100.00
43770;BME280;6597;52.218;9.882;2023-02-10T05:28:29;102634.94;;;2.01;100.00
43770;BME280;6597;52.218;9.882;2023-02-10T05:30:55;102634.19;;;2.05;100.00
43770;BME280;6597;52.218;9.882;2023-02-10T05:33:22;102633.41;;;2.07;100.00
43770;BME280;6597;52.218;9.882;2023-02-10T05:35:48;102629.91;;;2.07;100.00
43770;BME280;6597;52.218;9.882;2023-02-10T05:38:16;102631.63;;;2.06;100.00
43770;BME280;6597;52.218;9.882;2023-02-10T05:40:42;102633.34;;;2.06;100.00
43770;BME280;6597;52.218;9.882;2023-02-10T05:43:09;102641.91;;;2.03;100.00
43770;BME280;6597;52.218;9.882;2023-02-10T05:45:36;102642.91;;;2.08;100.00
43770;BME280;6597;52.218;9.882;2023-02-10T05:48:02;102634.28;;;2.08;100.00
43770;BME280;6597;52.218;9.882;2023-02-10T05:50:29;102639.38;;;2.05;100.00
43770;BME280;6597;52.218;9.882;2023-02-10T05:52:55;102636.81;;;2.06;100.00
43770;BME280;6597;52.218;9.882;2023-02-10T05:55:23;102647.19;;;2.06;100.00
43770;BME280;6597;52.218;9.882;2023-02-10T05:57:51;102638.66;;;2.10;100.00
43770;BME280;6597;52.218;9.882;2023-02-10T06:00:18;102644.63;;;2.08;100.00
43770;BME280;6597;52.218;9.882;2023-02-10T06:02:51;102642.09;;;2.09;100.00
43770;BME280;6597;52.218;9.882;2023-02-10T06:05:18;102643.84;;;2.10;100.00
43770;BME280;6597;52.218;9.882;2023-02-10T06:07:44;102654.25;;;2.12;100.00
43770;BME280;6597;52.218;9.882;2023-02-10T06:10:11;102655.16;;;2.14;100.00
43770;BME280;6597;52.218;9.882;2023-02-10T06:12:39;102668.09;;;2.12;100.00
43770;BME280;6597;52.218;9.882;2023-02-10T06:15:06;102667.25;;;2.13;100.00
43770;BME280;6597;52.218;9.882;2023-02-10T06:17:32;102674.22;;;2.16;100.00
43770;BME280;6597;52.218;9.882;2023-02-10T06:19:59;102671.69;;;2.17;100.00
43770;BME280;6597;52.218;9.882;2023-02-10T06:22:25;102676.94;;;2.21;100.00
43770;BME280;6597;52.218;9.882;2023-02-10T06:24:52;102683.84;;;2.20;100.00
43770;BME280;6597;52.218;9.882;2023-02-10T06:27:19;102682.00;;;2.16;100.00
43770;BME280;6597;52.218;9.882;2023-02-10T06:29:46;102678.53;;;2.15;100.00
43770;BME280;6597;52.218;9.882;2023-02-10T06:32:13;102681.97;;;2.14;100.00
43770;BME280;6597;52.218;9.882;2023-02-10T06:34:40;102682.56;;;2.06;100.00
43770;BME280;6597;52.218;9.882;2023-02-10T06:37:06;102687.53;;;1.98;100.00
43770;BME280;6597;52.218;9.882;2023-02-10T06:39:33;102691.56;;;1.90;100.00
43770;BME280;6597;52.218;9.882;2023-02-10T06:41:59;102703.72;;;1.93;100.00
43770;BME280;6597;52.218;9.882;2023-02-10T06:44:26;102713.25;;;1.94;100.00
43770;BME280;6597;52.218;9.882;2023-02-10T06:46:54;102708.16;;;1.95;100.00
43770;BME280;6597;52.218;9.882;2023-02-10T06:49:20;102722.94;;;1.99;100.00
43770;BME280;6597;52.218;9.882;2023-02-10T06:51:47;102719.66;;;2.05;100.00
43770;BME280;6597;52.218;9.882;2023-02-10T06:54:13;102718.84;;;2.06;100.00
43770;BME280;6597;52.218;9.882;2023-02-10T06:56:40;102721.38;;;2.04;100.00
43770;BME280;6597;52.218;9.882;2023-02-10T06:59:06;102712.78;;;2.05;100.00
43770;BME280;6597;52.218;9.882;2023-02-10T07:01:33;102715.47;;;2.08;100.00
43770;BME280;6597;52.218;9.882;2023-02-10T07:04:01;102716.97;;;2.02;100.00
43770;BME280;6597;52.218;9.882;2023-02-10T07:06:28;102723.81;;;2.00;100.00
43770;BME280;6597;52.218;9.882;2023-02-10T07:08:54;102723.88;;;2.01;100.00
43770;BME280;6597;52.218;9.882;2023-02-10T07:11:21;102726.50;;;2.03;100.00
43770;BME280;6597;52.218;9.882;2023-02-10T07:13:47;102725.78;;;2.07;100.00
43770;BME280;6597;52.218;9.882;2023-02-10T07:16:14;102724.94;;;2.08;100.00
43770;BME280;6597;52.218;9.882;2023-02-10T07:18:41;102715.41;;;2.07;100.00
43770;BME280;6597;52.218;9.882;2023-02-10T07:21:09;102719.81;;;2.09;100.00
43770;BME280;6597;52.218;9.882;2023-02-10T07:23:36;102713.78;;;2.10;100.00
43770;BME280;6597;52.218;9.882;2023-02-10T07:26:03;102712.31;;;2.18;100.00
43770;BME280;6597;52.218;9.882;2023-02-10T07:28:30;102720.97;;;2.19;100.00
43770;BME280;6597;52.218;9.882;2023-02-10T07:30:57;102711.56;;;2.23;100.00
43770;BME280;6597;52.218;9.882;2023-02-10T07:33:24;102717.66;;;2.25;100.00
43770;BME280;6597;52.218;9.882;2023-02-10T07:35:51;102720.38;;;2.28;100.00
43770;BME280;6597;52.218;9.882;2023-02-10T07:38:19;102712.75;;;2.32;100.00
43770;BME280;6597;52.218;9.882;2023-02-10T07:40:46;102717.22;;;2.38;100.00
43770;BME280;6597;52.218;9.882;2023-02-10T07:43:12;102720.00;;;2.44;100.00
43770;BME280;6597;52.218;9.882;2023-02-10T07:45:44;102723.50;;;2.46;100.00
43770;BME280;6597;52.218;9.882;2023-02-10T07:48:11;102721.19;;;2.55;100.00
43770;BME280;6597;52.218;9.882;2023-02-10T07:50:37;102734.34;;;2.61;100.00
43770;BME280;6597;52.218;9.882;2023-02-10T07:53:04;102730.22;;;2.68;100.00
43770;BME280;6597;52.218;9.882;2023-02-10T07:55:32;102730.22;;;2.68;100.00
43770;BME280;6597;52.218;9.882;2023-02-10T07:57:58;102743.22;;;2.69;100.00
43770;BME280;6597;52.218;9.882;2023-02-10T08:00:25;102731.34;;;2.77;100.00
43770;BME280;6597;52.218;9.882;2023-02-10T08:02:52;102732.44;;;2.86;100.00
43770;BME280;6597;52.218;9.882;2023-02-10T08:05:18;102739.34;;;2.85;100.00
43770;BME280;6597;52.218;9.882;2023-02-10T08:07:45;102738.44;;;2.85;100.00
43770;BME280;6597;52.218;9.882;2023-02-10T08:10:11;102737.66;;;2.87;100.00
43770;BME280;6597;52.218;9.882;2023-02-10T08:12:39;102742.00;;;2.88;100.00
43770;BME280;6597;52.218;9.882;2023-02-10T08:15:07;102746.69;;;3.00;100.00
43770;BME280;6597;52.218;9.882;2023-02-10T08:17:34;102754.59;;;3.04;99.92
43770;BME280;6597;52.218;9.882;2023-02-10T08:20:02;102747.72;;;3.06;99.93
43770;BME280;6597;52.218;9.882;2023-02-10T08:22:29;102744.38;;;3.10;99.58
43770;BME280;6597;52.218;9.882;2023-02-10T08:24:56;102747.25;;;3.21;99.48
43770;BME280;6597;52.218;9.882;2023-02-10T08:27:22;102757.66;;;3.23;99.60
43770;BME280;6597;52.218;9.882;2023-02-10T08:29:50;102741.91;;;3.15;99.06
43770;BME280;6597;52.218;9.882;2023-02-10T08:32:17;102759.56;;;3.28;98.92
43770;BME280;6597;52.218;9.882;2023-02-10T08:34:44;102762.13;;;3.27;99.35
43770;BME280;6597;52.218;9.882;2023-02-10T08:37:11;102761.41;;;3.32;99.37
43770;BME280;6597;52.218;9.882;2023-02-10T08:39:38;102759.91;;;3.40;98.84
43770;BME280;6597;52.218;9.882;2023-02-10T08:42:05;102769.59;;;3.48;98.40
43770;BME280;6597;52.218;9.882;2023-02-10T08:44:31;102769.59;;;3.48;98.44
43770;BME280;6597;52.218;9.882;2023-02-10T08:46:59;102768.88;;;3.53;97.88
43770;BME280;6597;52.218;9.882;2023-02-10T08:49:26;102770.81;;;3.60;97.50
43770;BME280;6597;52.218;9.882;2023-02-10T08:51:54;102777.94;;;3.69;97.23
43770;BME280;6597;52.218;9.882;2023-02-10T08:54:21;102775.44;;;3.72;96.96
43770;BME280;6597;52.218;9.882;2023-02-10T08:56:47;102779.84;;;3.76;96.26
43770;BME280;6597;52.218;9.882;2023-02-10T08:59:14;102778.44;;;3.89;96.75
43770;BME280;6597;52.218;9.882;2023-02-10T09:01:41;102783.88;;;3.98;95.73
43770;BME280;6597;52.218;9.882;2023-02-10T09:04:08;102781.53;;;4.09;95.47
43770;BME280;6597;52.218;9.882;2023-02-10T09:06:37;102776.44;;;4.13;94.70
43770;BME280;6597;52.218;9.882;2023-02-10T09:09:05;102779.31;;;4.24;94.26
43770;BME280;6597;52.218;9.882;2023-02-10T09:11:32;102786.28;;;4.26;93.52
43770;BME280;6597;52.218;9.882;2023-02-10T09:13:59;102782.03;;;4.30;93.18
43770;BME280;6597;52.218;9.882;2023-02-10T09:16:25;102782.22;;;4.37;92.63
43770;BME280;6597;52.218;9.882;2023-02-10T09:18:52;102784.09;;;4.45;92.65
43770;BME280;6597;52.218;9.882;2023-02-10T09:21:20;102783.28;;;4.47;92.14
43770;BME280;6597;52.218;9.882;2023-02-10T09:23:46;102783.41;;;4.53;92.11
43770;BME280;6597;52.218;9.882;2023-02-10T09:26:13;102787.75;;;4.53;92.08
43770;BME280;6597;52.218;9.882;2023-02-10T09:28:40;102789.66;;;4.60;91.72
43770;BME280;6597;52.218;9.882;2023-02-10T09:31:07;102779.22;;;4.58;91.36
43770;BME280;6597;52.218;9.882;2023-02-10T09:33:35;102786.13;;;4.56;91.24
43770;BME280;6597;52.218;9.882;2023-02-10T09:36:02;102780.81;;;4.53;92.04
43770;BME280;6597;52.218;9.882;2023-02-10T09:38:30;102788.75;;;4.58;91.61
43770;BME280;6597;52.218;9.882;2023-02-10T09:41:07;102793.47;;;4.36;91.84
43770;BME280;6597;52.218;9.882;2023-02-10T09:43:58;102795.75;;;4.23;92.30
43770;BME280;6597;52.218;9.882;2023-02-10T09:46:38;102787.78;;;4.17;92.67
43770;BME280;6597;52.218;9.882;2023-02-10T09:49:17;102807.66;;;4.15;93.40
43770;BME280;6597;52.218;9.882;2023-02-10T09:51:52;102809.47;;;4.19;93.76
43770;BME280;6597;52.218;9.882;2023-02-10T09:54:26;102800.81;;;4.18;94.13
43770;BME280;6597;52.218;9.882;2023-02-10T09:56:57;102805.34;;;4.25;93.66
43770;BME280;6597;52.218;9.882;2023-02-10T09:59:24;102793.31;;;4.30;93.35
43770;BME280;6597;52.218;9.882;2023-02-10T10:01:55;102803.78;;;4.33;92.66
43770;BME280;6597;52.218;9.882;2023-02-10T10:04:24;102802.31;;;4.45;92.89
43770;BME280;6597;52.218;9.882;2023-02-10T10:06:55;102799.25;;;4.62;91.62
43770;BME280;6597;52.218;9.882;2023-02-10T10:09:37;102788.22;;;4.74;91.36
43770;BME280;6597;52.218;9.882;2023-02-10T10:12:07;102784.81;;;4.77;90.65
43770;BME280;6597;52.218;9.882;2023-02-10T10:14:37;102793.81;;;4.92;90.07
43770;BME280;6597;52.218;9.882;2023-02-10T10:20:28;102790.88;;;4.77;89.50
43770;BME280;6597;52.218;9.882;2023-02-10T10:23:07;102796.72;;;4.65;90.29
43770;BME280;6597;52.218;9.882;2023-02-10T10:25:52;102796.22;;;4.44;90.57
43770;BME280;6597;52.218;9.882;2023-02-10T10:28:28;102792.78;;;4.45;91.13
43770;BME280;6597;52.218;9.882;2023-02-10T10:31:00;102793.50;;;4.79;90.05
43770;BME280;6597;52.218;9.882;2023-02-10T10:33:33;102797.47;;;5.02;88.49
43770;BME280;6597;52.218;9.882;2023-02-10T10:36:02;102795.25;;;5.20;87.74
43770;BME280;6597;52.218;9.882;2023-02-10T10:38:30;102799.75;;;5.27;86.57
43770;BME280;6597;52.218;9.882;2023-02-10T10:41:02;102804.28;;;5.39;86.83
43770;BME280;6597;52.218;9.882;2023-02-10T10:43:31;102812.16;;;5.42;86.60
43770;BME280;6597;52.218;9.882;2023-02-10T10:46:02;102803.44;;;5.40;87.19
43770;BME280;6597;52.218;9.882;2023-02-10T10:48:31;102795.72;;;5.45;86.78
43770;BME280;6597;52.218;9.882;2023-02-10T10:51:00;102790.50;;;5.45;87.00
43770;BME280;6597;52.218;9.882;2023-02-10T10:53:35;102791.53;;;5.53;86.22
43770;BME280;6597;52.218;9.882;2023-02-10T10:56:06;102781.38;;;5.68;85.37
43770;BME280;6597;52.218;9.882;2023-02-10T10:58:39;102781.72;;;5.88;85.22
43770;BME280;6597;52.218;9.882;2023-02-10T11:01:08;102764.81;;;6.17;83.70
43770;BME280;6597;52.218;9.882;2023-02-10T11:03:34;102763.41;;;6.38;83.16
43770;BME280;6597;52.218;9.882;2023-02-10T11:06:04;102762.41;;;6.28;81.24
43770;BME280;6597;52.218;9.882;2023-02-10T11:08:35;102753.66;;;6.24;81.19
43770;BME280;6597;52.218;9.882;2023-02-10T11:11:10;102762.78;;;5.97;81.56
43770;BME280;6597;52.218;9.882;2023-02-10T11:13:39;102769.44;;;5.82;82.33
43770;BME280;6597;52.218;9.882;2023-02-10T11:16:09;102761.75;;;5.88;82.42
43770;BME280;6597;52.218;9.882;2023-02-10T11:18:37;102762.59;;;5.86;82.51
43770;BME280;6597;52.218;9.882;2023-02-10T11:21:06;102766.16;;;5.91;81.83
43770;BME280;6597;52.218;9.882;2023-02-10T11:23:35;102763.81;;;6.08;80.95
43770;BME280;6597;52.218;9.882;2023-02-10T11:26:04;102750.31;;;6.35;80.91
43770;BME280;6597;52.218;9.882;2023-02-10T11:28:34;102761.75;;;6.44;80.35
43770;BME280;6597;52.218;9.882;2023-02-10T11:31:03;102757.06;;;6.20;80.06
43770;BME280;6597;52.218;9.882;2023-02-10T11:33:33;102760.13;;;5.93;81.47
43770;BME280;6597;52.218;9.882;2023-02-10T11:36:04;102768.00;;;5.98;81.52
43770;BME280;6597;52.218;9.882;2023-02-10T11:38:33;102765.28;;;5.90;81.40
43770;BME280;6597;52.218;9.882;2023-02-10T11:41:01;102770.31;;;5.81;82.01
43770;BME280;6597;52.218;9.882;2023-02-10T11:43:34;102757.25;;;5.80;82.59
43770;BME280;6597;52.218;9.882;2023-02-10T11:46:04;102758.03;;;5.74;82.52
43770;BME280;6597;52.218;9.882;2023-02-10T11:48:31;102746.19;;;5.90;81.88
43770;BME280;6597;52.218;9.882;2023-02-10T11:51:03;102743.97;;;6.17;80.90
43770;BME280;6597;52.218;9.882;2023-02-10T11:53:33;102739.19;;;6.49;80.34
43770;BME280;6597;52.218;9.882;2023-02-10T11:56:02;102737.78;;;6.74;77.83
43770;BME280;6597;52.218;9.882;2023-02-10T11:58:42;102740.06;;;6.48;78.12
43770;BME280;6597;52.218;9.882;2023-02-10T12:01:32;102748.69;;;6.43;78.29
43770;BME280;6597;52.218;9.882;2023-02-10T12:04:05;102746.34;;;6.63;78.32
43770;BME280;6597;52.218;9.882;2023-02-10T12:06:52;102736.22;;;6.85;77.29
43770;BME280;6597;52.218;9.882;2023-02-10T12:09:27;102737.00;;;6.81;76.14
43770;BME280;6597;52.218;9.882;2023-02-10T12:12:02;102729.13;;;6.78;76.75
43770;BME280;6597;52.218;9.882;2023-02-10T12:14:43;102735.34;;;6.86;76.05
43770;BME280;6597;52.218;9.882;2023-02-10T12:17:23;102723.41;;;7.08;75.63
43770;BME280;6597;52.218;9.882;2023-02-10T12:20:02;102737.59;;;7.35;75.06
43770;BME280;6597;52.218;9.882;2023-02-10T12:22:44;102748.94;;;7.37;74.55
43770;BME280;6597;52.218;9.882;2023-02-10T12:25:20;102749.97;;;7.51;73.77
43770;BME280;6597;52.218;9.882;2023-02-10T12:27:56;102729.88;;;7.47;73.51
43770;BME280;6597;52.218;9.882;2023-02-10T12:30:42;102733.44;;;7.52;72.96
43770;BME280;6597;52.218;9.882;2023-02-10T12:33:29;102740.44;;;7.56;73.07
43770;BME280;6597;52.218;9.882;2023-02-10T12:36:03;102739.69;;;7.71;73.13
43770;BME280;6597;52.218;9.882;2023-02-10T12:38:46;102741.25;;;7.51;72.65
43770;BME280;6597;52.218;9.882;2023-02-10T12:41:23;102735.78;;;7.25;73.33
43770;BME280;6597;52.218;9.882;2023-02-10T12:44:09;102730.31;;;7.03;73.88
43770;BME280;6597;52.218;9.882;2023-02-10T12:46:46;102735.38;;;6.88;74.58
43770;BME280;6597;52.218;9.882;2023-02-10T12:49:25;102721.28;;;6.75;75.44
43770;BME280;6597;52.218;9.882;2023-02-10T12:52:02;102727.13;;;6.54;75.74
43770;BME280;6597;52.218;9.882;2023-02-10T12:54:35;102719.13;;;6.42;76.34
43770;BME280;6597;52.218;9.882;2023-02-10T12:57:06;102718.03;;;6.27;77.37
43770;BME280;6597;52.218;9.882;2023-02-10T12:59:39;102718.06;;;6.28;78.01
43770;BME280;6597;52.218;9.882;2023-02-10T13:02:15;102712.13;;;6.41;77.23
43770;BME280;6597;52.218;9.882;2023-02-10T13:04:44;102707.19;;;6.60;76.15
43770;BME280;6597;52.218;9.882;2023-02-10T13:07:20;102702.09;;;6.72;75.89
43770;BME280;6597;52.218;9.882;2023-02-10T13:09:56;102698.72;;;6.82;75.04
43770;BME280;6597;52.218;9.882;2023-02-10T13:12:31;102692.63;;;6.81;75.35
43770;BME280;6597;52.218;9.882;2023-02-10T13:15:02;102686.38;;;6.67;74.87
43770;BME280;6597;52.218;9.882;2023-02-10T13:17:42;102683.81;;;6.72;75.58
43770;BME280;6597;52.218;9.882;2023-02-10T13:20:23;102681.13;;;6.63;76.19
43770;BME280;6597;52.218;9.882;2023-02-10T13:22:55;102680.28;;;6.65;76.66